Time;durP1;ratioP1;P1;durP2;ratioP2;P2;SDS_P1;SDS_P2;PMS_P1;PMS_P2;Temp;Humidity;BMP_temperature;BMP_pressure;BME280_temperature;BME280_humidity;BME280_pressure;Samples;Min_cycle;Max_cycle;Signal;HPM_P1;HPM_P2
2021/04/03 00:04:55;;;;;;;1999.90;999.90;;;;;;;8.34;68.51;101297.59;15675896;28;20456;-64
2021/04/03 00:12:28;;;;;;;1999.90;999.90;;;;;;;8.22;68.65;101293.56;15652942;28;20056;-63
2021/04/03 00:19:59;;;;;;;1999.90;999.90;;;;;;;8.22;70.99;101304.69;15656577;28;20394;-64
2021/04/03 00:27:31;;;;;;;1999.90;999.90;;;;;;;8.36;70.06;101294.50;15659926;28;20053;-63
2021/04/03 00:35:03;;;;;;;1999.90;999.90;;;;;;;8.24;70.56;101286.59;15676640;28;20047;-64
2021/04/03 00:42:36;;;;;;;1999.90;999.90;;;;;;;8.07;70.75;101289.09;15676289;28;20097;-63
2021/04/03 00:50:10;;;;;;;1999.90;999.90;;;;;;;8.17;69.56;101299.22;15676197;28;20098;-64
2021/04/03 00:57:43;;;;;;;1999.90;999.90;;;;;;;7.88;70.28;101285.50;15660461;28;20056;-64
2021/04/03 01:05:18;;;;;;;1999.90;999.90;;;;;;;7.71;70.00;101299.91;15688786;28;20048;-63
2021/04/03 01:12:58;;;;;;;1999.90;999.90;;;;;;;7.66;70.21;101300.00;15669228;28;20047;-63
2021/04/03 01:20:40;;;;;;;1999.90;999.90;;;;;;;7.57;69.64;101301.78;15667213;28;20090;-62
2021/04/03 01:28:35;;;;;;;1999.90;999.90;;;;;;;7.21;70.94;101299.47;15652903;28;20048;-63
2021/04/03 01:36:14;;;;;;;1999.90;999.90;;;;;;;7.48;69.95;101299.66;15686477;28;20045;-63
2021/04/03 01:43:51;;;;;;;1999.90;999.90;;;;;;;7.10;71.14;101306.28;15651940;28;20074;-64
2021/04/03 01:51:33;;;;;;;1999.90;999.90;;;;;;;7.20;70.76;101318.09;15654540;28;20499;-63
2021/04/03 01:59:06;;;;;;;1999.90;999.90;;;;;;;7.09;70.63;101327.66;15650161;28;20045;-63
2021/04/03 02:06:42;;;;;;;1999.90;999.90;;;;;;;6.77;71.72;101335.75;15642360;28;20041;-63
2021/04/03 02:14:25;;;;;;;1999.90;999.90;;;;;;;6.65;71.72;101338.91;15632260;28;20033;-63
2021/04/03 02:21:58;;;;;;;1999.90;999.90;;;;;;;6.58;71.89;101353.13;15668277;28;20090;-62
2021/04/03 02:29:29;;;;;;;1999.90;999.90;;;;;;;6.57;71.74;101353.44;15732487;28;20048;-63
2021/04/03 02:37:04;;;;;;;1999.90;999.90;;;;;;;6.54;71.70;101360.38;15699655;28;20050;-62
2021/04/03 02:44:42;;;;;;;1999.90;999.90;;;;;;;6.49;71.58;101365.97;15701469;28;20151;-62
2021/04/03 02:52:17;;;;;;;1999.90;999.90;;;;;;;6.26;72.72;101362.00;15684492;28;20071;-63
2021/04/03 02:59:53;;;;;;;1999.90;999.90;;;;;;;6.10;72.79;101382.59;15701637;28;20056;-63
2021/04/03 03:07:26;;;;;;;1999.90;999.90;;;;;;;6.25;72.21;101384.44;15709055;28;20431;-64
2021/04/03 03:15:01;;;;;;;1999.90;999.90;;;;;;;6.00;72.27;101391.81;15713976;28;20511;-63
2021/04/03 03:22:35;;;;;;;1999.90;999.90;;;;;;;5.85;72.51;101389.09;15678499;28;20056;-63
2021/04/03 03:30:08;;;;;;;1999.90;999.90;;;;;;;6.04;72.22;101401.22;15704491;28;20098;-63
2021/04/03 03:37:45;;;;;;;1999.90;999.90;;;;;;;5.88;71.97;101396.00;15723339;28;20466;-63
2021/04/03 03:45:20;;;;;;;1999.90;999.90;;;;;;;5.82;72.28;101394.34;15723583;28;20047;-62
2021/04/03 03:52:56;;;;;;;1999.90;999.90;;;;;;;5.71;72.13;101415.72;15722833;28;20056;-61
2021/04/03 04:00:28;;;;;;;1999.90;999.90;;;;;;;5.70;72.13;101412.13;15739473;28;20132;-63
2021/04/03 04:08:11;;;;;;;1999.90;999.90;;;;;;;5.82;71.04;101413.75;15722073;28;20071;-63
2021/04/03 04:15:44;;;;;;;1999.90;999.90;;;;;;;5.53;72.13;101417.22;15702717;28;20049;-63
2021/04/03 04:23:17;;;;;;;1999.90;999.90;;;;;;;5.57;71.96;101415.53;15681767;28;20064;-62
2021/04/03 04:30:53;;;;;;;1999.90;999.90;;;;;;;5.82;70.80;101427.59;15694559;28;20047;-63
2021/04/03 04:38:26;;;;;;;1999.90;999.90;;;;;;;5.70;71.45;101428.75;15680107;28;20506;-63
2021/04/03 04:45:58;;;;;;;1999.90;999.90;;;;;;;5.63;70.92;101438.50;15705533;28;20045;-63
2021/04/03 04:53:38;;;;;;;1999.90;999.90;;;;;;;5.40;71.66;101456.53;15701527;28;20103;-63
2021/04/03 05:01:10;;;;;;;1999.90;999.90;;;;;;;5.51;71.95;101463.69;15672682;28;20072;-62
2021/04/03 05:08:50;;;;;;;1999.90;999.90;;;;;;;5.95;70.24;101461.09;15691896;28;20041;-63
2021/04/03 05:16:22;;;;;;;1999.90;999.90;;;;;;;6.06;70.18;101476.56;15729072;28;20048;-63
2021/04/03 05:23:54;;;;;;;1999.90;999.90;;;;;;;6.82;67.06;101482.75;15710937;23;20045;-80
2021/04/03 05:31:25;;;;;;;1999.90;999.90;;;;;;;7.12;65.98;101498.31;15742127;28;20131;-82
2021/04/03 05:38:58;;;;;;;1999.90;999.90;;;;;;;7.50;64.99;101510.44;15781065;23;20055;-64
2021/04/03 05:46:29;;;;;;;1999.90;999.90;;;;;;;7.68;64.50;101520.81;15808637;28;20044;-65
2021/04/03 05:54:03;;;;;;;1999.90;999.90;;;;;;;7.71;64.34;101536.03;15810195;28;20055;-64
2021/04/03 06:01:37;;;;;;;1999.90;999.90;;;;;;;8.12;63.02;101533.63;15791666;28;20062;-63
2021/04/03 06:09:09;;;;;;;;;;;;;;;8.51;60.96;101539.00;15767793;28;20040;-63
2021/04/03 06:16:44;;;;;;;1999.90;999.90;;;;;;;8.58;61.70;101564.50;15791498;28;19924;-64
2021/04/03 06:24:22;;;;;;;1999.90;999.90;;;;;;;8.70;60.79;101568.78;15811735;28;20075;-64
2021/04/03 06:31:54;;;;;;;1999.90;999.90;;;;;;;10.14;56.65;101583.63;15791085;28;20048;-65
2021/04/03 06:39:28;;;;;;;1999.90;999.90;;;;;;;10.56;54.26;101587.25;15810085;28;20055;-63
2021/04/03 06:47:00;;;;;;;;;;;;;;;10.94;53.85;101598.97;15790745;28;20036;-64
2021/04/03 06:54:33;;;;;;;1999.90;999.90;;;;;;;10.89;53.70;101607.47;15788388;28;19920;-64
2021/04/03 07:02:07;;;;;;;1999.90;999.90;;;;;;;10.60;53.77;101611.44;15789078;28;20044;-63
2021/04/03 07:09:41;;;;;;;1999.90;999.90;;;;;;;11.52;50.91;101615.72;15787531;28;20110;-63
2021/04/03 07:17:17;;;;;;;1999.90;999.90;;;;;;;13.02;47.94;101620.50;15805350;28;20525;-64
2021/04/03 07:24:52;;;;;;;1999.90;999.90;;;;;;;12.46;48.11;101624.16;15804929;28;20044;-64
2021/04/03 07:32:37;;;;;;;1999.90;999.90;;;;;;;13.25;45.54;101635.25;15803568;28;20475;-63
2021/04/03 07:40:35;;;;;;;1999.90;999.90;;;;;;;13.97;43.92;101642.13;15783609;28;20036;-63
2021/04/03 07:48:11;;;;;;;1999.90;999.90;;;;;;;14.79;41.73;101643.63;15802072;28;20081;-64
2021/04/03 07:55:45;;;;;;;1999.90;999.90;;;;;;;14.26;42.26;101659.03;15783526;28;20546;-63
2021/04/03 08:03:20;;;;;;;1999.90;999.90;;;;;;;14.84;40.26;101663.09;15767138;28;20112;-65
2021/04/03 08:11:06;;;;;;;1999.90;999.90;;;;;;;14.44;39.22;101673.84;15799146;28;20044;-64
2021/04/03 08:18:39;;;;;;;1999.90;999.90;;;;;;;16.00;36.72;101682.06;15799790;28;20055;-63
2021/04/03 08:26:12;;;;;;;1999.90;999.90;;;;;;;16.45;34.85;101684.06;15753804;28;20037;-63
2021/04/03 08:33:44;;;;;;;1999.90;999.90;;;;;;;16.34;34.84;101675.22;15740058;28;511194;-64
2021/04/03 08:41:18;;;;;;;1999.90;999.90;;;;;;;16.92;34.88;101678.03;15801640;28;20040;-65
2021/04/03 08:48:50;;;;;;;;;;;;;;;15.05;34.84;101674.38;15782500;28;20106;-65
2021/04/03 08:56:26;;;;;;;1999.90;999.90;;;;;;;17.11;31.61;101674.59;15800805;28;19927;-65
2021/04/03 09:04:03;;;;;;;1999.90;999.90;;;;;;;16.11;32.42;101672.00;15765933;28;20040;-65
2021/04/03 09:11:36;;;;;;;1999.90;999.90;;;;;;;15.15;33.04;101674.00;15798856;28;20036;-64
2021/04/03 09:19:08;;;;;;;;;;;;;;;14.23;34.87;101684.97;15804863;28;20058;-65
2021/04/03 09:26:40;;;;;;;1999.90;999.90;;;;;;;12.84;36.79;101694.47;15812550;28;20437;-63
2021/04/03 09:34:16;;;;;;;1999.90;999.90;;;;;;;12.83;38.10;101698.44;15794188;28;20047;-63
2021/04/03 09:41:52;;;;;;;1999.90;999.90;;;;;;;16.16;34.17;101685.88;15786865;28;20044;-63
2021/04/03 09:49:23;;;;;;;1999.90;999.90;;;;;;;12.89;37.91;101706.34;15793423;28;20055;-62
2021/04/03 09:56:55;;;;;;;1999.90;999.90;;;;;;;13.07;39.13;101698.81;15792035;28;20039;-63
2021/04/03 10:04:27;;;;;;;1999.90;999.90;;;;;;;12.91;39.04;101698.44;15793591;28;20051;-63
2021/04/03 10:11:59;;;;;;;1999.90;999.90;;;;;;;12.10;40.35;101701.53;15810576;28;20051;-64
2021/04/03 10:19:31;;;;;;;1999.90;999.90;;;;;;;16.13;34.75;101700.63;15808741;28;20050;-63
2021/04/03 10:27:05;;;;;;;1999.90;999.90;;;;;;;15.67;33.33;101712.19;15808639;28;20059;-63
2021/04/03 10:34:37;;;;;;;;;;;;;;;12.56;37.88;101711.50;15796537;28;20052;-64
2021/04/03 10:42:09;;;;;;;1999.90;999.90;;;;;;;14.76;36.46;101711.72;15794073;28;19924;-62
2021/04/03 10:49:41;;;;;;;1999.90;999.90;;;;;;;13.72;36.25;101720.34;15806166;28;20126;-65
2021/04/03 10:57:13;;;;;;;1999.90;999.90;;;;;;;14.31;36.02;101712.19;15779431;28;20040;-56
2021/04/03 11:04:45;;;;;;;1999.90;999.90;;;;;;;13.39;36.87;101725.63;15769370;28;20534;-58
2021/04/03 11:12:17;;;;;;;1999.90;999.90;;;;;;;13.76;36.67;101728.97;15806241;28;20466;-64
2021/04/03 11:19:48;;;;;;;1999.90;999.90;;;;;;;14.14;36.56;101726.25;15801017;28;20071;-62
2021/04/03 11:27:21;;;;;;;1999.90;999.90;;;;;;;12.90;37.08;101718.38;15786253;28;20512;-63
2021/04/03 11:34:52;;;;;;;1999.90;999.90;;;;;;;13.19;36.35;101735.47;15788050;22;20048;-61
2021/04/03 11:42:25;;;;;;;1999.90;999.90;;;;;;;11.79;38.93;101720.22;15646918;28;20367;-59
2021/04/03 11:49:57;;;;;;;1999.90;999.90;;;;;;;18.02;30.02;101731.38;15629289;28;20075;-59
2021/04/03 11:57:30;;;;;;;1999.90;999.90;;;;;;;15.05;32.79;101710.94;15641215;28;20417;-57
2021/04/03 12:05:02;;;;;;;1999.90;999.90;;;;;;;13.18;35.82;101732.97;15629929;28;20488;-56
2021/04/03 12:12:36;;;;;;;1999.90;999.90;;;;;;;17.18;30.61;101717.94;15605481;28;20045;-57
2021/04/03 12:20:12;;;;;;;1999.90;999.90;;;;;;;18.77;26.75;101728.66;15592029;28;20440;-60
2021/04/03 12:27:44;;;;;;;1999.90;999.90;;;;;;;16.19;28.99;101722.97;15639132;28;20049;-60
2021/04/03 12:35:16;;;;;;;1999.90;999.90;;;;;;;14.63;31.34;101741.69;15594136;28;20136;-61
2021/04/03 12:42:49;;;;;;;1999.90;999.90;;;;;;;13.59;31.80;101740.97;15598937;28;20144;-60
2021/04/03 12:50:21;;;;;;;1999.90;999.90;;;;;;;13.79;32.32;101745.13;15671206;28;20045;-59
2021/04/03 12:57:53;;;;;;;1999.90;999.90;;;;;;;16.97;26.32;101751.06;15634412;28;20057;-59
2021/04/03 13:05:25;;;;;;;1999.90;999.90;;;;;;;15.23;28.54;101742.59;15643086;28;20049;-60
2021/04/03 13:12:57;;;;;;;1999.90;999.90;;;;;;;23.64;20.84;101748.28;15606622;28;20434;-59
2021/04/03 13:20:29;;;;;;;1999.90;999.90;;;;;;;16.77;29.24;101750.00;15601663;28;20068;-60
2021/04/03 13:28:01;;;;;;;1999.90;999.90;;;;;;;14.21;30.75;101745.41;15661302;28;20277;-59
2021/04/03 13:35:33;;;;;;;1999.90;999.90;;;;;;;19.10;25.12;101750.91;15621159;28;20046;-59
2021/04/03 13:43:05;;;;;;;1999.90;999.90;;;;;;;17.49;25.42;101756.81;15601423;28;20195;-59
2021/04/03 13:50:37;;;;;;;1999.90;999.90;;;;;;;17.34;26.50;101743.44;15637262;28;20033;-58
2021/04/03 13:58:09;;;;;;;1999.90;999.90;;;;;;;16.33;27.44;101746.81;15615923;28;20046;-59
2021/04/03 14:05:42;;;;;;;1999.90;999.90;;;;;;;14.70;29.47;101747.63;15652319;28;20052;-58
2021/04/03 14:13:15;;;;;;;1999.90;999.90;;;;;;;14.23;28.77;101729.06;15602863;28;20116;-60
2021/04/03 14:20:46;;;;;;;1999.90;999.90;;;;;;;12.38;31.08;101743.34;15586569;28;20046;-55
2021/04/03 14:28:18;;;;;;;1999.90;999.90;;;;;;;12.57;32.01;101743.13;15587597;28;20053;-59
2021/04/03 14:35:50;;;;;;;1999.90;999.90;;;;;;;13.86;30.05;101743.47;15588438;28;20142;-58
2021/04/03 14:43:23;;;;;;;1999.90;999.90;;;;;;;13.01;29.92;101740.16;15596563;28;20049;-60
2021/04/03 14:50:55;;;;;;;1999.90;999.90;;;;;;;12.14;31.13;101750.13;15599014;28;20041;-59
2021/04/03 14:58:27;;;;;;;1999.90;999.90;;;;;;;11.94;31.79;101745.03;15604743;28;20227;-60
2021/04/03 15:05:59;;;;;;;1999.90;999.90;;;;;;;12.36;30.47;101737.25;15569884;28;20045;-58
2021/04/03 15:13:34;;;;;;;1999.90;999.90;;;;;;;13.31;30.34;101734.84;15580304;28;20076;-59
2021/04/03 15:21:06;;;;;;;1999.90;999.90;;;;;;;12.49;30.12;101744.72;15612116;28;20046;-60
2021/04/03 15:28:38;;;;;;;1999.90;999.90;;;;;;;12.14;30.43;101752.91;15601577;28;20046;-58
2021/04/03 15:36:11;;;;;;;1999.90;999.90;;;;;;;12.01;29.78;101747.38;15590224;28;20041;-60
2021/04/03 15:43:43;;;;;;;1999.90;999.90;;;;;;;11.84;28.81;101743.31;15615502;28;20676;-60
2021/04/03 15:51:14;;;;;;;1999.90;999.90;;;;;;;11.76;30.31;101743.19;15628331;28;20496;-60
2021/04/03 15:58:47;;;;;;;1999.90;999.90;;;;;;;12.11;29.82;101770.34;15633876;28;20116;-61
2021/04/03 16:06:19;;;;;;;1999.90;999.90;;;;;;;11.41;30.70;101756.03;15590696;28;20136;-61
2021/04/03 16:13:51;;;;;;;1999.90;999.90;;;;;;;11.19;31.36;101765.19;15611700;28;20153;-61
2021/04/03 16:21:22;;;;;;;1999.90;999.90;;;;;;;10.77;31.37;101757.94;15579858;28;20406;-61
2021/04/03 16:28:55;;;;;;;1999.90;999.90;;;;;;;11.18;30.64;101764.34;15590778;28;20100;-61
2021/04/03 16:36:26;;;;;;;1999.90;999.90;;;;;;;11.38;31.60;101760.28;15607742;28;20048;-59
2021/04/03 16:43:59;;;;;;;1999.90;999.90;;;;;;;11.17;32.09;101778.63;15608804;28;20457;-61
2021/04/03 16:51:30;;;;;;;1999.90;999.90;;;;;;;10.58;32.21;101781.19;15591343;28;20044;-60
2021/04/03 16:59:03;;;;;;;1999.90;999.90;;;;;;;10.27;32.62;101782.84;15597605;28;20034;-60
2021/04/03 17:06:34;;;;;;;1999.90;999.90;;;;;;;9.96;33.15;101788.06;15593250;28;20141;-62
2021/04/03 17:14:07;;;;;;;1999.90;999.90;;;;;;;10.18;33.38;101798.59;15589346;28;20112;-61
2021/04/03 17:21:39;;;;;;;1999.90;999.90;;;;;;;9.71;33.70;101806.03;15590272;28;20045;-60
2021/04/03 17:29:11;;;;;;;1999.90;999.90;;;;;;;9.83;34.65;101807.22;15588275;28;20049;-60
2021/04/03 17:36:43;;;;;;;1999.90;999.90;;;;;;;9.54;34.81;101814.91;15615439;22;20053;-63
2021/04/03 17:44:15;;;;;;;1999.90;999.90;;;;;;;9.55;35.08;101836.88;15611541;28;20127;-62
2021/04/03 17:51:47;;;;;;;1999.90;999.90;;;;;;;9.32;35.93;101831.34;15617071;28;20052;-63
2021/04/03 17:59:19;;;;;;;1999.90;999.90;;;;;;;9.08;36.34;101834.97;15597993;28;20513;-63
2021/04/03 18:06:51;;;;;;;1999.90;999.90;;;;;;;9.25;35.99;101851.19;15619599;28;20049;-61
2021/04/03 18:14:23;;;;;;;1999.90;999.90;;;;;;;8.59;36.87;101843.56;15603352;28;20083;-61
2021/04/03 18:21:56;;;;;;;1999.90;999.90;;;;;;;8.44;37.43;101858.44;15615686;28;20511;-63
2021/04/03 18:29:29;;;;;;;1999.90;999.90;;;;;;;8.62;38.07;101879.97;15614388;28;20057;-60
2021/04/03 18:37:01;;;;;;;1999.90;999.90;;;;;;;8.59;37.86;101872.19;15614449;28;20119;-60
2021/04/03 18:44:35;;;;;;;1999.90;999.90;;;;;;;8.44;38.16;101877.06;15612963;28;20164;-63
2021/04/03 18:52:07;;;;;;;1999.90;999.90;;;;;;;8.00;38.58;101881.50;15612746;28;20400;-62
2021/04/03 18:59:39;;;;;;;1999.90;999.90;;;;;;;8.01;37.54;101880.38;15581838;28;20061;-62
2021/04/03 19:07:11;;;;;;;1999.90;999.90;;;;;;;7.86;38.58;101879.66;15603235;28;20469;-62
2021/04/03 19:14:44;;;;;;;1999.90;999.90;;;;;;;8.28;39.04;101887.44;15577150;28;20117;-64
2021/04/03 19:22:16;;;;;;;1999.90;999.90;;;;;;;8.23;39.54;101885.53;15621588;28;20362;-63
2021/04/03 19:29:48;;;;;;;1999.90;999.90;;;;;;;7.72;40.14;101887.81;15584022;28;20438;-62
2021/04/03 19:37:20;;;;;;;1999.90;999.90;;;;;;;7.74;40.32;101880.00;15600800;28;20048;-61
2021/04/03 19:44:53;;;;;;;1999.90;999.90;;;;;;;7.80;39.82;101876.06;15599752;28;20049;-61
2021/04/03 19:52:24;;;;;;;1999.90;999.90;;;;;;;7.76;41.40;101886.09;15594036;28;20366;-64
2021/04/03 19:59:57;;;;;;;1999.90;999.90;;;;;;;7.41;40.96;101887.94;15565598;28;20053;-61
2021/04/03 20:07:28;;;;;;;1999.90;999.90;;;;;;;7.44;43.52;101898.47;15581492;28;20057;-61
2021/04/03 20:15:01;;;;;;;1999.90;999.90;;;;;;;7.29;43.16;101901.28;15600296;28;20056;-62
2021/04/03 20:22:32;;;;;;;1999.90;999.90;;;;;;;6.91;43.21;101913.88;15586906;28;20464;-64
2021/04/03 20:30:18;;;;;;;1999.90;999.90;;;;;;;6.75;44.53;101915.81;15592050;28;20469;-62
2021/04/03 20:37:50;;;;;;;1999.90;999.90;;;;;;;6.52;46.21;101908.88;15605505;28;20111;-64
2021/04/03 20:45:24;;;;;;;1999.90;999.90;;;;;;;6.34;46.06;101912.19;15605806;28;20041;-64
2021/04/03 20:52:56;;;;;;;1999.90;999.90;;;;;;;6.06;48.17;101922.69;15589660;28;20068;-64
2021/04/03 21:00:30;;;;;;;1999.90;999.90;;;;;;;6.07;47.40;101918.81;15599751;28;20053;-61
2021/04/03 21:08:01;;;;;;;1999.90;999.90;;;;;;;5.94;47.42;101924.88;15606544;28;20074;-63
2021/04/03 21:15:37;;;;;;;1999.90;999.90;;;;;;;5.73;48.86;101928.63;15609664;28;20633;-62
2021/04/03 21:23:09;;;;;;;1999.90;999.90;;;;;;;5.43;49.71;101923.81;15590475;28;20122;-62
2021/04/03 21:30:41;;;;;;;1999.90;999.90;;;;;;;5.37;50.29;101939.56;15619028;28;20141;-62
2021/04/03 21:38:13;;;;;;;1999.90;999.90;;;;;;;5.26;51.40;101929.53;15598922;28;20132;-61
2021/04/03 21:45:45;;;;;;;1999.90;999.90;;;;;;;4.97;51.15;101937.38;15597629;28;20041;-62
2021/04/03 21:53:17;;;;;;;1999.90;999.90;;;;;;;5.01;51.69;101926.63;15615716;28;20335;-62
2021/04/03 22:00:50;;;;;;;1999.90;999.90;;;;;;;4.90;51.91;101929.31;15576701;28;20405;-63
2021/04/03 22:08:22;;;;;;;1999.90;999.90;;;;;;;4.73;51.89;101925.84;15614999;28;20080;-62
2021/04/03 22:15:54;;;;;;;1999.90;999.90;;;;;;;4.47;53.19;101935.00;15613638;28;20046;-64
2021/04/03 22:23:26;;;;;;;1999.90;999.90;;;;;;;4.44;53.81;101932.78;15613542;28;20091;-62
2021/04/03 22:30:58;;;;;;;1999.90;999.90;;;;;;;4.10;54.47;101929.44;15593867;28;20061;-63
2021/04/03 22:38:29;;;;;;;1999.90;999.90;;;;;;;4.09;54.88;101941.56;15613696;28;20081;-62
2021/04/03 22:46:02;;;;;;;1999.90;999.90;;;;;;;4.10;54.00;101938.53;15594599;28;20493;-61
2021/04/03 22:53:34;;;;;;;1999.90;999.90;;;;;;;3.92;53.98;101942.47;15612642;28;20057;-61
2021/04/03 23:01:06;;;;;;;1999.90;999.90;;;;;;;3.81;54.49;101939.88;15594864;28;20424;-62
2021/04/03 23:08:38;;;;;;;1999.90;999.90;;;;;;;3.73;54.63;101930.94;15593034;28;20049;-62
2021/04/03 23:16:10;;;;;;;1999.90;999.90;;;;;;;3.55;55.46;101942.31;15590492;28;20526;-61
2021/04/03 23:23:42;;;;;;;1999.90;999.90;;;;;;;3.45;54.92;101943.03;15609598;28;20448;-63
2021/04/03 23:31:15;;;;;;;1999.90;999.90;;;;;;;3.45;55.25;101928.41;15591273;28;20490;-61
2021/04/03 23:38:46;;;;;;;1999.90;999.90;;;;;;;3.32;55.47;101929.56;15641739;23;20117;-60
2021/04/03 23:46:19;;;;;;;1999.90;999.90;;;;;;;3.21;56.81;101922.25;15620395;28;20045;-61
2021/04/03 23:53:50;;;;;;;1999.90;999.90;;;;;;;3.27;55.69;101928.69;15661778;28;20049;-61
